createdAt,value
2023-04-07T00:00:43.571Z,92.73
2023-04-07T00:03:11.613Z,94.90
2023-04-07T00:05:39.705Z,96.54
2023-04-07T00:08:07.688Z,97.75
2023-04-07T00:10:35.958Z,99.04
2023-04-07T00:13:05.397Z,98.87
2023-04-07T00:15:33.445Z,99.05
2023-04-07T00:18:01.503Z,99.62
2023-04-07T00:20:29.652Z,100.00
2023-04-07T00:22:57.563Z,100.00
2023-04-07T00:25:25.514Z,100.00
2023-04-07T00:27:53.515Z,100.00
2023-04-07T00:30:23.010Z,100.00
2023-04-07T00:32:51.529Z,100.00
2023-04-07T00:35:19.702Z,100.00
2023-04-07T00:37:47.667Z,100.00
2023-04-07T00:40:15.738Z,100.00
2023-04-07T00:42:43.761Z,100.00
2023-04-07T00:45:12.850Z,100.00
2023-04-07T00:47:42.443Z,100.00
2023-04-07T00:50:11.167Z,100.00
2023-04-07T00:52:39.229Z,100.00
2023-04-07T00:55:07.990Z,100.00
2023-04-07T00:57:36.002Z,100.00
2023-04-07T01:00:05.493Z,100.00
2023-04-07T01:02:39.112Z,100.00
2023-04-07T01:05:16.254Z,100.00
2023-04-07T01:07:53.302Z,100.00
2023-04-07T01:10:28.523Z,100.00
2023-04-07T01:13:04.117Z,100.00
2023-04-07T01:15:34.196Z,100.00
2023-04-07T01:18:10.020Z,100.00
2023-04-07T01:20:41.240Z,100.00
2023-04-07T01:23:09.531Z,100.00
2023-04-07T01:25:55.089Z,100.00
2023-04-07T01:28:42.986Z,100.00
2023-04-07T01:31:14.139Z,100.00
2023-04-07T01:33:46.524Z,100.00
2023-04-07T01:36:15.680Z,100.00
2023-04-07T01:38:45.594Z,100.00
2023-04-07T01:41:16.089Z,100.00
2023-04-07T01:43:45.251Z,100.00
2023-04-07T01:46:16.029Z,100.00
2023-04-07T01:48:44.396Z,100.00
2023-04-07T01:51:17.657Z,100.00
2023-04-07T01:53:46.309Z,100.00
2023-04-07T01:56:14.360Z,100.00
2023-04-07T01:58:42.465Z,100.00
2023-04-07T02:01:10.654Z,100.00
2023-04-07T02:03:45.627Z,100.00
2023-04-07T02:06:19.257Z,100.00
2023-04-07T02:08:50.422Z,100.00
2023-04-07T02:11:22.147Z,100.00
2023-04-07T02:13:52.618Z,100.00
2023-04-07T02:16:22.705Z,100.00
2023-04-07T02:18:53.913Z,100.00
2023-04-07T02:21:23.016Z,100.00
2023-04-07T02:23:51.089Z,100.00
2023-04-07T02:26:19.065Z,100.00
2023-04-07T02:28:47.030Z,100.00
2023-04-07T02:31:15.061Z,100.00
2023-04-07T02:33:42.983Z,100.00
2023-04-07T02:36:12.360Z,100.00
2023-04-07T02:38:40.361Z,100.00
2023-04-07T02:41:08.405Z,100.00
2023-04-07T02:43:36.385Z,100.00
2023-04-07T02:46:04.475Z,100.00
2023-04-07T02:48:32.396Z,100.00
2023-04-07T02:51:00.447Z,100.00
2023-04-07T02:53:29.818Z,100.00
2023-04-07T02:55:57.806Z,100.00
2023-04-07T02:58:25.786Z,100.00
2023-04-07T03:00:53.894Z,100.00
2023-04-07T03:03:22.064Z,100.00
2023-04-07T03:05:50.209Z,100.00
2023-04-07T03:08:18.206Z,100.00
2023-04-07T03:10:47.645Z,100.00
2023-04-07T03:13:16.597Z,100.00
2023-04-07T03:15:45.223Z,100.00
2023-04-07T03:18:13.234Z,100.00
2023-04-07T03:20:42.016Z,100.00
2023-04-07T03:23:10.250Z,100.00
2023-04-07T03:25:38.195Z,100.00
2023-04-07T03:28:07.678Z,100.00
2023-04-07T03:30:35.679Z,100.00
2023-04-07T03:33:03.969Z,100.00
2023-04-07T03:35:31.998Z,100.00
2023-04-07T03:37:59.925Z,100.00
2023-04-07T03:40:27.957Z,100.00
2023-04-07T03:42:55.874Z,100.00
2023-04-07T03:45:25.189Z,100.00
2023-04-07T03:47:54.360Z,100.00
2023-04-07T03:50:22.501Z,100.00
2023-04-07T03:52:50.803Z,100.00
2023-04-07T03:55:18.967Z,100.00
2023-04-07T03:57:47.025Z,100.00
2023-04-07T04:00:15.527Z,100.00
2023-04-07T04:02:44.930Z,100.00
2023-04-07T04:05:12.997Z,100.00
2023-04-07T04:07:41.002Z,100.00
2023-04-07T04:10:10.007Z,100.00
2023-04-07T04:12:38.006Z,100.00
2023-04-07T04:15:06.573Z,100.00
2023-04-07T04:17:34.600Z,100.00
2023-04-07T04:20:04.076Z,100.00
2023-04-07T04:22:32.120Z,100.00
2023-04-07T04:25:00.649Z,100.00
2023-04-07T04:27:29.144Z,100.00
2023-04-07T04:29:57.126Z,100.00
2023-04-07T04:32:25.476Z,100.00
2023-04-07T04:34:53.436Z,100.00
2023-04-07T04:37:23.043Z,100.00
2023-04-07T04:39:51.365Z,100.00
2023-04-07T04:42:19.325Z,100.00
2023-04-07T04:44:47.320Z,100.00
2023-04-07T04:47:15.687Z,100.00
2023-04-07T04:49:43.739Z,100.00
2023-04-07T04:52:11.753Z,100.00
2023-04-07T04:54:41.168Z,100.00
2023-04-07T04:57:09.198Z,100.00
2023-04-07T04:59:37.148Z,100.00
2023-04-07T05:02:05.188Z,100.00
2023-04-07T05:04:33.647Z,100.00
2023-04-07T05:07:01.649Z,100.00
2023-04-07T05:09:29.592Z,100.00
2023-04-07T05:11:59.146Z,100.00
2023-04-07T05:14:27.150Z,100.00
2023-04-07T05:16:55.366Z,100.00
2023-04-07T05:19:23.429Z,100.00
2023-04-07T05:21:51.566Z,100.00
2023-04-07T05:24:19.817Z,99.76
2023-04-07T05:26:48.002Z,100.00
2023-04-07T05:29:17.448Z,99.72
2023-04-07T05:31:45.505Z,98.39
2023-04-07T05:34:22.381Z,97.44
2023-04-07T05:36:56.378Z,95.14
2023-04-07T05:39:33.356Z,94.67
2023-04-07T05:42:01.792Z,93.45
2023-04-07T05:44:31.232Z,94.21
2023-04-07T05:46:59.169Z,93.97
2023-04-07T05:49:27.212Z,96.52
2023-04-07T05:51:55.453Z,95.99
2023-04-07T05:54:23.415Z,95.37
2023-04-07T05:56:51.475Z,94.30
2023-04-07T05:59:19.385Z,94.29
2023-04-07T06:01:48.881Z,93.31
2023-04-07T06:04:16.926Z,94.45
2023-04-07T06:06:44.920Z,95.20
2023-04-07T06:09:12.896Z,93.93
2023-04-07T06:11:40.945Z,94.09
2023-04-07T06:14:08.996Z,93.66
2023-04-07T06:16:37.006Z,94.36
2023-04-07T06:19:08.332Z,90.35
2023-04-07T06:21:38.112Z,88.71
2023-04-07T06:24:06.663Z,84.43
2023-04-07T06:26:34.804Z,80.73
2023-04-07T06:29:02.910Z,77.63
2023-04-07T06:31:30.901Z,72.71
2023-04-07T06:33:59.049Z,68.69
2023-04-07T06:36:29.180Z,66.38
2023-04-07T06:38:57.423Z,63.23
2023-04-07T06:41:27.648Z,61.56
2023-04-07T06:43:55.650Z,59.84
2023-04-07T06:46:23.693Z,61.11
2023-04-07T06:48:51.734Z,60.39
2023-04-07T06:51:19.841Z,60.43
2023-04-07T06:53:49.938Z,57.70
2023-04-07T06:56:18.065Z,55.07
2023-04-07T06:58:46.100Z,54.48
2023-04-07T07:01:14.052Z,55.12
2023-04-07T07:03:42.094Z,53.51
2023-04-07T07:06:11.258Z,51.44
2023-04-07T07:08:39.807Z,51.08
2023-04-07T07:11:09.467Z,52.01
2023-04-07T07:13:37.503Z,51.20
2023-04-07T07:16:06.062Z,49.80
2023-04-07T07:18:36.382Z,48.40
2023-04-07T07:21:04.577Z,49.80
2023-04-07T07:23:32.791Z,52.10
2023-04-07T07:26:00.769Z,52.88
2023-04-07T07:28:30.165Z,53.37
2023-04-07T07:30:58.295Z,54.29
2023-04-07T07:33:26.395Z,54.76
2023-04-07T07:35:54.339Z,56.27
2023-04-07T07:38:22.395Z,58.62
2023-04-07T07:40:50.611Z,58.13
2023-04-07T07:43:19.326Z,58.99
2023-04-07T07:45:48.671Z,59.25
2023-04-07T07:48:19.081Z,60.12
2023-04-07T07:50:48.004Z,59.77
2023-04-07T07:53:16.092Z,58.58
2023-04-07T07:55:44.060Z,57.48
2023-04-07T07:58:12.040Z,58.28
2023-04-07T08:00:40.115Z,56.66
2023-04-07T08:03:09.598Z,54.02
2023-04-07T08:05:37.916Z,51.47
2023-04-07T08:08:06.024Z,51.81
2023-04-07T08:10:34.093Z,50.73
2023-04-07T08:13:02.079Z,50.75
2023-04-07T08:15:30.068Z,50.13
2023-04-07T08:18:00.221Z,49.46
2023-04-07T08:20:29.642Z,49.52
2023-04-07T08:22:57.670Z,49.70
2023-04-07T08:25:25.852Z,49.79
2023-04-07T08:27:53.880Z,48.41
2023-04-07T08:30:22.392Z,49.44
2023-04-07T08:32:50.797Z,49.44
2023-04-07T08:35:18.812Z,48.18
2023-04-07T08:37:48.960Z,48.31
2023-04-07T08:40:17.395Z,49.18
2023-04-07T08:42:49.040Z,49.95
2023-04-07T08:45:19.109Z,49.68
2023-04-07T08:47:49.042Z,49.04
2023-04-07T08:50:19.307Z,48.79
2023-04-07T08:52:55.885Z,47.16
2023-04-07T08:55:24.241Z,47.75
2023-04-07T08:57:54.031Z,45.54
2023-04-07T09:00:22.574Z,44.87
2023-04-07T09:02:51.969Z,45.60
2023-04-07T09:05:21.525Z,45.21
2023-04-07T09:07:50.999Z,46.39
2023-04-07T09:10:19.035Z,45.96
2023-04-07T09:12:47.077Z,45.35
2023-04-07T09:15:16.496Z,46.24
2023-04-07T09:17:44.754Z,46.33
2023-04-07T09:20:12.958Z,46.42
2023-04-07T09:22:44.219Z,45.69
2023-04-07T09:25:16.771Z,45.13
2023-04-07T09:27:59.134Z,45.34
2023-04-07T09:30:27.624Z,43.79
2023-04-07T09:32:55.958Z,43.76
2023-04-07T09:35:24.820Z,43.02
2023-04-07T09:38:04.013Z,42.32
2023-04-07T09:40:33.770Z,43.67
2023-04-07T09:43:02.976Z,44.20
2023-04-07T09:45:35.025Z,44.08
2023-04-07T09:48:07.771Z,44.08
2023-04-07T09:50:37.182Z,44.22
2023-04-07T09:53:05.229Z,45.15
2023-04-07T09:55:35.131Z,45.55
2023-04-07T09:58:06.465Z,45.62
2023-04-07T10:00:34.970Z,44.79
2023-04-07T10:03:04.797Z,44.55
2023-04-07T10:05:33.874Z,44.14
2023-04-07T10:08:03.570Z,43.95
2023-04-07T10:10:32.810Z,43.57
2023-04-07T10:13:06.006Z,44.26
2023-04-07T10:15:34.649Z,44.89
2023-04-07T10:18:07.612Z,45.47
2023-04-07T10:20:41.095Z,45.51
2023-04-07T10:23:20.392Z,45.61
2023-04-07T10:25:52.704Z,46.05
2023-04-07T10:28:24.426Z,45.82
2023-04-07T10:30:53.175Z,46.68
2023-04-07T10:33:46.641Z,46.49
2023-04-07T10:36:14.945Z,46.93
2023-04-07T10:38:43.432Z,47.86
2023-04-07T10:41:33.469Z,48.17
2023-04-07T10:44:03.902Z,48.06
2023-04-07T10:47:11.246Z,48.87
2023-04-07T10:49:39.165Z,48.61
2023-04-07T10:52:26.112Z,48.72
2023-04-07T10:55:31.654Z,48.48
2023-04-07T10:58:28.951Z,48.24
2023-04-07T11:01:28.403Z,48.67
2023-04-07T11:03:59.713Z,49.04
2023-04-07T11:06:27.966Z,48.79
2023-04-07T11:08:56.243Z,47.81
2023-04-07T11:11:39.969Z,48.04
2023-04-07T11:14:08.251Z,48.64
2023-04-07T11:16:39.979Z,48.24
2023-04-07T11:19:08.341Z,48.72
2023-04-07T11:21:37.053Z,48.75
2023-04-07T11:24:05.837Z,49.64
2023-04-07T11:26:40.449Z,48.86
2023-04-07T11:29:09.218Z,49.34
2023-04-07T11:31:40.134Z,48.80
2023-04-07T11:34:09.328Z,48.91
2023-04-07T11:36:40.810Z,49.00
2023-04-07T11:39:20.824Z,48.33
2023-04-07T11:41:50.686Z,48.75
2023-04-07T11:44:18.856Z,49.18
2023-04-07T11:46:58.986Z,48.92
2023-04-07T11:49:29.189Z,48.91
2023-04-07T11:52:01.912Z,48.35
2023-04-07T11:54:41.183Z,48.50
2023-04-07T11:57:12.165Z,49.71
2023-04-07T11:59:40.956Z,50.14
2023-04-07T12:02:10.687Z,51.01
2023-04-07T12:04:40.772Z,50.94
2023-04-07T12:07:13.460Z,49.73
2023-04-07T12:09:41.799Z,48.13
2023-04-07T12:12:10.801Z,47.04
2023-04-07T12:14:39.433Z,45.01
2023-04-07T12:17:10.607Z,43.39
2023-04-07T12:19:40.093Z,44.86
2023-04-07T12:22:10.295Z,44.50
2023-04-07T12:24:38.199Z,44.81
2023-04-07T12:27:06.232Z,46.28
2023-04-07T12:29:35.296Z,46.61
2023-04-07T12:32:03.665Z,45.95
2023-04-07T12:34:31.792Z,46.74
2023-04-07T12:37:01.432Z,45.68
2023-04-07T12:39:29.423Z,46.23
2023-04-07T12:41:58.301Z,46.72
2023-04-07T12:44:28.636Z,47.06
2023-04-07T12:46:56.572Z,47.24
2023-04-07T12:49:24.520Z,47.33
2023-04-07T12:51:52.792Z,47.65
2023-04-07T12:54:23.008Z,47.64
2023-04-07T12:56:51.809Z,47.98
2023-04-07T12:59:19.846Z,48.69
2023-04-07T13:01:50.645Z,49.43
2023-04-07T13:04:19.596Z,50.12
2023-04-07T13:06:48.596Z,50.27
2023-04-07T13:09:16.628Z,50.85
2023-04-07T13:11:45.946Z,50.12
2023-04-07T13:14:15.127Z,49.92
2023-04-07T13:16:43.613Z,49.83
2023-04-07T13:19:11.655Z,49.38
2023-04-07T13:24:11.003Z,49.31
2023-04-07T13:26:38.975Z,49.78
2023-04-07T13:29:09.184Z,50.06
2023-04-07T13:31:37.328Z,50.15
2023-04-07T13:34:06.482Z,49.71
2023-04-07T13:36:34.511Z,49.61
2023-04-07T13:39:02.522Z,50.32
2023-04-07T13:41:30.966Z,50.59
2023-04-07T13:43:59.515Z,51.64
2023-04-07T13:46:31.321Z,51.87
2023-04-07T13:48:59.329Z,51.65
2023-04-07T13:51:28.188Z,52.27
2023-04-07T13:53:56.284Z,52.19
2023-04-07T13:56:24.822Z,52.18
2023-04-07T13:58:52.757Z,51.78
2023-04-07T14:01:20.931Z,52.87
2023-04-07T14:03:50.744Z,53.46
2023-04-07T14:06:18.957Z,52.96
2023-04-07T14:08:47.421Z,53.00
2023-04-07T14:11:18.880Z,52.61
2023-04-07T14:13:46.987Z,53.14
2023-04-07T14:16:15.266Z,53.99
2023-04-07T14:18:43.557Z,53.97
2023-04-07T14:21:12.836Z,54.26
2023-04-07T14:23:40.840Z,54.68
2023-04-07T14:26:12.333Z,55.18
2023-04-07T14:28:40.702Z,55.27
2023-04-07T14:31:14.282Z,56.22
2023-04-07T14:33:42.398Z,56.07
2023-04-07T14:36:10.706Z,57.09
2023-04-07T14:38:40.095Z,56.58
2023-04-07T14:41:10.264Z,56.90
2023-04-07T14:43:39.090Z,56.55
2023-04-07T14:46:07.272Z,57.13
2023-04-07T14:48:35.486Z,58.19
2023-04-07T14:51:09.598Z,57.28
2023-04-07T14:53:39.607Z,58.25
2023-04-07T14:56:08.490Z,58.24
2023-04-07T14:58:39.073Z,58.78
2023-04-07T15:01:07.501Z,59.47
2023-04-07T15:03:36.870Z,60.64
2023-04-07T15:06:08.569Z,61.19
2023-04-07T15:08:36.606Z,62.19
2023-04-07T15:11:07.444Z,62.11
2023-04-07T15:13:36.382Z,62.07
2023-04-07T15:16:08.890Z,62.79
2023-04-07T15:18:37.026Z,62.30
2023-04-07T15:21:05.172Z,62.90
2023-04-07T15:23:33.300Z,62.84
2023-04-07T15:26:01.485Z,62.88
2023-04-07T15:28:30.882Z,62.63
2023-04-07T15:30:59.020Z,63.89
2023-04-07T15:33:27.336Z,63.45
2023-04-07T15:35:55.552Z,63.60
2023-04-07T15:38:23.608Z,64.40
2023-04-07T15:40:51.760Z,64.05
2023-04-07T15:43:19.739Z,63.85
2023-04-07T15:45:49.542Z,64.56
2023-04-07T15:48:18.133Z,63.67
2023-04-07T15:50:46.255Z,64.25
2023-04-07T15:53:14.568Z,64.42
2023-04-07T15:55:44.296Z,63.97
2023-04-07T15:58:12.403Z,63.57
2023-04-07T16:00:41.234Z,64.27
2023-04-07T16:03:10.889Z,63.94
2023-04-07T16:05:39.227Z,63.87
2023-04-07T16:08:07.353Z,64.91
2023-04-07T16:10:35.347Z,64.28
2023-04-07T16:13:03.387Z,65.19
2023-04-07T16:15:39.902Z,64.58
2023-04-07T16:18:14.201Z,64.61
2023-04-07T16:20:42.285Z,64.97
2023-04-07T16:23:10.638Z,64.97
2023-04-07T16:25:38.647Z,65.14
2023-04-07T16:28:06.822Z,65.40
2023-04-07T16:30:34.965Z,65.73
2023-04-07T16:33:03.450Z,64.97
2023-04-07T16:35:33.013Z,64.89
2023-04-07T16:38:04.832Z,65.96
2023-04-07T16:40:33.956Z,65.27
2023-04-07T16:43:02.187Z,65.71
2023-04-07T16:45:30.201Z,66.51
2023-04-07T16:47:58.228Z,65.40
2023-04-07T16:50:26.330Z,66.11
2023-04-07T16:52:59.870Z,66.01
2023-04-07T16:55:27.966Z,66.54
2023-04-07T16:57:56.058Z,66.78
2023-04-07T17:00:26.570Z,66.44
2023-04-07T17:02:55.074Z,66.17
2023-04-07T17:05:24.076Z,66.93
2023-04-07T17:07:52.142Z,66.46
2023-04-07T17:10:21.748Z,66.56
2023-04-07T17:12:54.429Z,66.95
2023-04-07T17:15:22.645Z,66.82
2023-04-07T17:17:51.226Z,66.81
2023-04-07T17:20:19.336Z,67.13
2023-04-07T17:22:49.088Z,66.57
2023-04-07T17:25:19.016Z,66.42
2023-04-07T17:27:49.215Z,66.93
2023-04-07T17:30:18.441Z,67.31
2023-04-07T17:32:46.434Z,67.12
2023-04-07T17:35:14.363Z,67.56
2023-04-07T17:37:42.574Z,67.99
2023-04-07T17:40:11.627Z,67.33
2023-04-07T17:42:39.936Z,67.43
2023-04-07T17:45:11.016Z,68.31
2023-04-07T17:47:39.039Z,68.44
2023-04-07T17:50:08.310Z,68.54
2023-04-07T17:52:36.566Z,67.69
2023-04-07T17:55:04.748Z,68.23
2023-04-07T17:57:33.790Z,67.87
2023-04-07T18:00:01.857Z,68.71
2023-04-07T18:02:31.672Z,67.70
2023-04-07T18:05:01.531Z,68.42
2023-04-07T18:07:29.977Z,68.31
2023-04-07T18:09:58.766Z,68.43
2023-04-07T18:12:26.912Z,68.09
2023-04-07T18:14:54.900Z,69.58
2023-04-07T18:17:22.911Z,69.12
2023-04-07T18:19:52.452Z,68.35
2023-04-07T18:22:20.716Z,69.08
2023-04-07T18:24:48.637Z,68.22
2023-04-07T18:27:16.711Z,68.80
2023-04-07T18:29:44.796Z,68.37
2023-04-07T18:32:13.045Z,67.93
2023-04-07T18:34:41.309Z,68.05
2023-04-07T18:37:10.694Z,68.78
2023-04-07T18:39:38.767Z,67.82
2023-04-07T18:42:06.863Z,67.94
2023-04-07T18:44:35.117Z,68.22
2023-04-07T18:47:03.240Z,68.40
2023-04-07T18:49:31.313Z,68.47
2023-04-07T18:51:59.942Z,68.10
2023-04-07T18:54:32.362Z,68.51
2023-04-07T18:57:00.546Z,67.96
2023-04-07T18:59:28.553Z,67.40
2023-04-07T19:01:57.247Z,67.41
2023-04-07T19:04:26.003Z,67.32
2023-04-07T19:06:54.446Z,66.39
2023-04-07T19:09:23.092Z,66.64
2023-04-07T19:11:52.614Z,66.25
2023-04-07T19:14:20.708Z,66.25
2023-04-07T19:16:51.013Z,67.03
2023-04-07T19:19:19.175Z,66.59
2023-04-07T19:21:47.229Z,67.46
2023-04-07T19:24:18.960Z,68.11
2023-04-07T19:26:47.165Z,68.96
2023-04-07T19:29:16.546Z,69.33
2023-04-07T19:31:45.205Z,70.53
2023-04-07T19:34:15.595Z,70.76
2023-04-07T19:36:43.621Z,72.10
2023-04-07T19:39:11.775Z,73.42
2023-04-07T19:41:42.303Z,72.64
2023-04-07T19:44:10.473Z,72.47
2023-04-07T19:46:39.884Z,73.07
2023-04-07T19:49:07.926Z,73.36
2023-04-07T19:51:36.506Z,73.71
2023-04-07T19:54:04.609Z,73.60
2023-04-07T19:56:32.557Z,74.63
2023-04-07T19:59:00.514Z,74.31
2023-04-07T20:01:28.968Z,73.96
2023-04-07T20:03:58.446Z,74.25
2023-04-07T20:06:27.364Z,74.97
2023-04-07T20:08:55.690Z,74.73
2023-04-07T20:11:23.667Z,74.51
2023-04-07T20:13:51.734Z,75.34
2023-04-07T20:16:22.371Z,76.44
2023-04-07T20:18:52.083Z,75.58
2023-04-07T20:21:21.822Z,75.24
2023-04-07T20:23:49.869Z,75.82
2023-04-07T20:26:17.991Z,75.35
2023-04-07T20:28:45.957Z,75.26
2023-04-07T20:31:14.039Z,74.83
2023-04-07T20:33:42.507Z,75.52
2023-04-07T20:36:10.694Z,74.69
2023-04-07T20:38:43.711Z,74.83
2023-04-07T20:41:13.594Z,75.38
2023-04-07T20:43:41.746Z,75.08
2023-04-07T20:46:09.895Z,75.10
2023-04-07T20:48:38.222Z,75.17
2023-04-07T20:51:06.120Z,75.56
2023-04-07T20:53:34.047Z,75.66
2023-04-07T20:56:03.525Z,74.65
2023-04-07T20:58:31.830Z,75.16
2023-04-07T21:01:00.978Z,74.98
2023-04-07T21:03:31.035Z,74.50
2023-04-07T21:05:59.116Z,74.48
2023-04-07T21:08:27.177Z,75.19
2023-04-07T21:10:56.012Z,74.85
2023-04-07T21:13:27.225Z,75.15
2023-04-07T21:15:55.343Z,74.51
2023-04-07T21:18:23.376Z,74.83
2023-04-07T21:20:51.488Z,74.87
2023-04-07T21:23:19.544Z,75.79
2023-04-07T21:25:47.765Z,77.00
2023-04-07T21:28:15.783Z,76.62
2023-04-07T21:30:45.221Z,77.79
2023-04-07T21:33:14.209Z,79.10
2023-04-07T21:35:42.321Z,80.38
2023-04-07T21:38:10.349Z,81.10
2023-04-07T21:40:38.320Z,82.54
2023-04-07T21:43:06.773Z,82.44
2023-04-07T21:45:34.971Z,83.65
2023-04-07T21:48:04.528Z,84.85
2023-04-07T21:50:32.867Z,83.56
2023-04-07T21:53:00.834Z,84.21
2023-04-07T21:55:28.837Z,84.69
2023-04-07T21:57:58.157Z,85.10
2023-04-07T22:00:26.281Z,84.76
2023-04-07T22:02:54.828Z,85.19
2023-04-07T22:05:24.420Z,85.83
2023-04-07T22:07:52.644Z,85.74
2023-04-07T22:10:20.601Z,86.22
2023-04-07T22:12:48.578Z,85.17
2023-04-07T22:15:16.645Z,85.85
2023-04-07T22:17:45.196Z,85.98
2023-04-07T22:20:13.486Z,85.90
2023-04-07T22:22:44.011Z,86.63
2023-04-07T22:25:12.124Z,86.79
2023-04-07T22:27:40.151Z,86.49
2023-04-07T22:30:10.941Z,87.40
2023-04-07T22:32:38.956Z,87.10
2023-04-07T22:35:07.291Z,86.90
2023-04-07T22:37:35.385Z,88.10
2023-04-07T22:40:05.079Z,88.60
2023-04-07T22:42:33.046Z,88.70
2023-04-07T22:45:01.010Z,88.69
2023-04-07T22:47:29.027Z,88.71
2023-04-07T22:49:58.328Z,88.74
2023-04-07T22:52:26.308Z,89.03
2023-04-07T22:54:54.215Z,89.00
2023-04-07T22:57:23.567Z,89.41
2023-04-07T22:59:51.569Z,89.78
2023-04-07T23:02:19.617Z,90.07
2023-04-07T23:04:47.680Z,90.07
2023-04-07T23:07:16.097Z,89.92
2023-04-07T23:09:44.034Z,89.66
2023-04-07T23:12:11.965Z,88.86
2023-04-07T23:14:41.420Z,88.59
2023-04-07T23:17:09.440Z,87.70
2023-04-07T23:19:37.455Z,87.24
2023-04-07T23:22:05.437Z,87.48
2023-04-07T23:24:33.385Z,86.86
2023-04-07T23:27:02.045Z,87.34
2023-04-07T23:29:29.984Z,86.85
2023-04-07T23:31:59.396Z,86.37
2023-04-07T23:34:27.462Z,85.89
2023-04-07T23:36:55.427Z,86.39
2023-04-07T23:39:23.458Z,85.62
2023-04-07T23:41:53.046Z,85.25
2023-04-07T23:44:21.801Z,85.09
2023-04-07T23:46:49.789Z,84.88
2023-04-07T23:49:19.241Z,84.99
2023-04-07T23:51:47.441Z,85.40
2023-04-07T23:54:15.356Z,84.87
2023-04-07T23:56:45.915Z,84.94
2023-04-07T23:59:14.026Z,85.18
